createdAt,value
2018-11-06T00:00:56.103Z,26.23
2018-11-06T00:03:42.593Z,26.48
2018-11-06T00:06:12.722Z,27.17
2018-11-06T00:08:41.222Z,26.67
2018-11-06T00:11:13.583Z,26.02
2018-11-06T00:13:43.702Z,26.52
2018-11-06T00:16:12.397Z,26.50
2018-11-06T00:18:40.156Z,26.27
2018-11-06T00:21:08.721Z,28.00
2018-11-06T00:23:38.793Z,25.75
2018-11-06T00:26:08.894Z,25.02
2018-11-06T00:28:40.427Z,26.08
2018-11-06T00:31:09.019Z,24.83
2018-11-06T00:33:37.601Z,24.12
2018-11-06T00:36:06.878Z,25.25
2018-11-06T00:38:38.509Z,24.55
2018-11-06T00:41:07.141Z,25.33
2018-11-06T00:43:38.915Z,23.52
2018-11-06T00:46:09.713Z,24.98
2018-11-06T00:48:38.322Z,23.60
2018-11-06T00:51:08.709Z,23.50
2018-11-06T00:53:37.016Z,22.87
2018-11-06T00:56:05.590Z,23.38
2018-11-06T00:58:35.713Z,23.10
2018-11-06T01:01:06.417Z,25.02
2018-11-06T01:04:09.636Z,24.27
2018-11-06T01:06:41.165Z,23.20
2018-11-06T01:09:12.974Z,24.65
2018-11-06T01:11:43.841Z,24.58
2018-11-06T01:14:15.348Z,24.75
2018-11-06T01:16:45.592Z,25.17
2018-11-06T01:19:16.765Z,25.42
2018-11-06T01:21:46.911Z,24.80
2018-11-06T01:24:17.038Z,23.35
2018-11-06T01:26:47.424Z,24.58
2018-11-06T01:29:17.491Z,24.58
2018-11-06T01:31:46.076Z,23.75
2018-11-06T01:34:17.100Z,23.73
2018-11-06T01:36:47.145Z,25.15
2018-11-06T01:39:17.322Z,23.00
2018-11-06T01:41:46.015Z,23.70
2018-11-06T01:44:13.748Z,24.98
2018-11-06T01:46:43.830Z,24.55
2018-11-06T01:49:14.133Z,24.25
2018-11-06T01:51:45.804Z,26.10
2018-11-06T01:54:17.345Z,23.00
2018-11-06T01:56:47.382Z,24.58
2018-11-06T01:59:17.907Z,25.17
2018-11-06T02:01:48.918Z,26.08
2018-11-06T02:04:18.122Z,23.17
2018-11-06T02:06:49.726Z,23.60
2018-11-06T02:09:20.701Z,24.05
2018-11-06T02:11:50.732Z,25.33
2018-11-06T02:14:21.883Z,23.55
2018-11-06T02:16:53.319Z,21.80
2018-11-06T02:19:23.556Z,23.45
2018-11-06T02:21:53.728Z,21.98
2018-11-06T02:24:24.263Z,22.27
2018-11-06T02:26:53.866Z,20.70
2018-11-06T02:29:23.725Z,22.15
2018-11-06T02:31:53.839Z,21.50
2018-11-06T02:34:25.625Z,20.83
2018-11-06T02:36:57.137Z,21.37
2018-11-06T02:39:27.230Z,21.50
2018-11-06T02:41:57.297Z,21.90
2018-11-06T02:44:25.897Z,24.02
2018-11-06T02:46:54.459Z,24.08
2018-11-06T02:49:23.163Z,22.87
2018-11-06T02:51:51.724Z,21.87
2018-11-06T02:54:20.311Z,22.17
2018-11-06T02:56:49.075Z,22.13
2018-11-06T02:59:18.443Z,21.85
2018-11-06T03:01:47.821Z,22.33
2018-11-06T03:04:19.549Z,23.05
2018-11-06T03:06:49.608Z,19.62
2018-11-06T03:09:19.707Z,22.25
2018-11-06T03:11:51.535Z,21.65
2018-11-06T03:14:21.601Z,23.62
2018-11-06T03:16:50.312Z,20.62
2018-11-06T03:19:18.813Z,21.70
2018-11-06T03:21:48.869Z,21.62
2018-11-06T03:24:19.063Z,21.87
2018-11-06T03:26:49.203Z,20.67
2018-11-06T03:29:19.276Z,20.58
2018-11-06T03:31:48.614Z,21.70
2018-11-06T03:34:17.307Z,21.23
2018-11-06T03:36:47.314Z,20.83
2018-11-06T03:39:19.256Z,20.45
2018-11-06T03:41:47.896Z,21.42
2018-11-06T03:44:18.459Z,21.83
2018-11-06T03:46:48.613Z,21.70
2018-11-06T03:49:17.274Z,20.73
2018-11-06T03:51:47.434Z,22.05
2018-11-06T03:54:17.607Z,21.33
2018-11-06T03:56:47.657Z,20.30
2018-11-06T03:59:19.214Z,20.92
2018-11-06T04:01:47.798Z,19.60
2018-11-06T04:04:18.368Z,19.45
2018-11-06T04:06:49.820Z,19.65
2018-11-06T04:09:18.325Z,19.08
2018-11-06T04:11:49.912Z,20.08
2018-11-06T04:14:20.609Z,19.27
2018-11-06T04:16:49.126Z,16.85
2018-11-06T04:19:20.731Z,19.15
2018-11-06T04:21:50.809Z,20.60
2018-11-06T04:24:19.382Z,20.25
2018-11-06T04:26:47.929Z,20.37
2018-11-06T04:29:18.043Z,20.90
2018-11-06T04:31:48.194Z,19.20
2018-11-06T04:34:16.979Z,19.58
2018-11-06T04:36:45.884Z,20.17
2018-11-06T04:39:14.447Z,19.48
2018-11-06T04:41:45.961Z,19.25
2018-11-06T04:44:14.574Z,19.90
2018-11-06T04:46:43.143Z,18.65
2018-11-06T04:49:11.706Z,17.77
2018-11-06T04:51:43.149Z,18.80
2018-11-06T04:54:13.201Z,19.23
2018-11-06T04:56:44.727Z,18.08
2018-11-06T04:59:13.343Z,17.12
2018-11-06T05:01:41.283Z,17.48
2018-11-06T05:04:13.454Z,18.27
2018-11-06T05:06:43.549Z,18.00
2018-11-06T05:09:12.173Z,18.10
2018-11-06T05:11:44.205Z,18.10
2018-11-06T05:14:14.260Z,17.55
2018-11-06T05:16:42.745Z,17.25
2018-11-06T05:19:10.215Z,17.05
2018-11-06T05:21:40.303Z,18.33
2018-11-06T05:24:08.889Z,19.08
2018-11-06T05:26:40.602Z,18.65
2018-11-06T05:29:10.676Z,16.98
2018-11-06T05:31:40.904Z,18.98
2018-11-06T05:34:11.227Z,17.42
2018-11-06T05:36:39.917Z,17.90
2018-11-06T05:39:13.209Z,18.02
2018-11-06T05:41:43.173Z,17.00
2018-11-06T05:44:14.669Z,16.80
2018-11-06T05:46:44.674Z,17.92
2018-11-06T05:49:13.495Z,17.83
2018-11-06T05:51:43.608Z,18.87
2018-11-06T05:54:15.142Z,17.42
2018-11-06T05:56:43.708Z,17.42
2018-11-06T05:59:13.831Z,18.40
2018-11-06T06:01:43.917Z,18.00
2018-11-06T06:04:14.004Z,18.83
2018-11-06T06:06:44.150Z,17.98
2018-11-06T06:09:12.780Z,18.08
2018-11-06T06:11:44.334Z,17.90
2018-11-06T06:14:13.561Z,18.67
2018-11-06T06:16:42.161Z,18.65
2018-11-06T06:19:12.187Z,18.40
2018-11-06T06:21:40.814Z,18.85
2018-11-06T06:24:09.317Z,19.35
2018-11-06T06:26:38.409Z,18.85
2018-11-06T06:29:08.604Z,18.37
2018-11-06T06:31:38.836Z,18.60
2018-11-06T06:34:08.980Z,19.58
2018-11-06T06:36:37.548Z,18.92
2018-11-06T06:39:09.909Z,18.73
2018-11-06T06:41:38.695Z,18.75
2018-11-06T06:44:09.285Z,19.92
2018-11-06T06:46:39.458Z,18.70
2018-11-06T06:49:08.850Z,18.48
2018-11-06T06:51:37.426Z,19.73
2018-11-06T06:54:07.537Z,20.85
2018-11-06T06:56:37.677Z,19.40
2018-11-06T06:59:08.100Z,18.73
2018-11-06T07:01:36.768Z,20.75
2018-11-06T07:04:07.030Z,19.65
2018-11-06T07:06:36.220Z,19.48
2018-11-06T07:09:06.277Z,20.62
2018-11-06T07:11:37.725Z,18.73
2018-11-06T07:14:09.216Z,18.90
2018-11-06T07:16:40.882Z,19.87
2018-11-06T07:19:11.392Z,18.95
2018-11-06T07:21:41.536Z,18.52
2018-11-06T07:24:10.122Z,18.42
2018-11-06T07:26:40.678Z,18.12
2018-11-06T07:29:12.163Z,18.77
2018-11-06T07:31:43.237Z,18.60
2018-11-06T07:34:13.538Z,18.85
2018-11-06T07:36:43.651Z,18.25
2018-11-06T07:39:13.502Z,17.67
2018-11-06T07:41:43.688Z,19.02
2018-11-06T07:44:15.288Z,16.73
2018-11-06T07:46:45.321Z,19.48
2018-11-06T07:49:15.724Z,18.83
2018-11-06T07:51:46.455Z,17.62
2018-11-06T07:54:18.190Z,18.92
2018-11-06T07:56:47.811Z,17.25
2018-11-06T07:59:16.282Z,19.55
2018-11-06T08:01:47.920Z,17.50
2018-11-06T08:04:18.075Z,18.00
2018-11-06T08:06:48.155Z,16.15
2018-11-06T08:09:19.771Z,19.35
2018-11-06T08:11:49.766Z,18.60
2018-11-06T08:14:19.846Z,20.52
2018-11-06T08:16:51.346Z,18.17
2018-11-06T08:19:21.460Z,16.98
2018-11-06T08:21:49.264Z,18.70
2018-11-06T08:24:20.125Z,15.30
2018-11-06T08:26:50.401Z,18.83
2018-11-06T08:29:18.903Z,18.02
2018-11-06T08:31:49.452Z,19.05
2018-11-06T08:34:20.669Z,18.30
2018-11-06T08:36:50.824Z,18.80
2018-11-06T08:39:19.087Z,16.25
2018-11-06T08:41:49.129Z,16.42
2018-11-06T08:44:20.685Z,18.60
2018-11-06T08:46:50.837Z,18.33
2018-11-06T08:49:20.879Z,19.27
2018-11-06T08:51:49.480Z,17.15
2018-11-06T08:54:19.649Z,17.45
2018-11-06T08:56:51.073Z,19.70
2018-11-06T08:59:21.601Z,14.05
2018-11-06T09:01:52.202Z,15.43
2018-11-06T09:04:22.222Z,17.90
2018-11-06T09:06:53.253Z,18.00
2018-11-06T09:09:21.764Z,15.32
2018-11-06T09:11:51.865Z,14.87
2018-11-06T09:14:21.467Z,17.35
2018-11-06T09:16:51.607Z,16.25
2018-11-06T09:19:20.189Z,16.25
2018-11-06T09:21:52.861Z,18.50
2018-11-06T09:24:21.558Z,16.10
2018-11-06T09:26:51.651Z,15.48
2018-11-06T09:29:20.261Z,17.27
2018-11-06T09:31:50.406Z,16.30
2018-11-06T09:34:18.938Z,18.05
2018-11-06T09:36:47.520Z,16.27
2018-11-06T09:39:17.753Z,16.45
2018-11-06T09:41:46.850Z,15.35
2018-11-06T09:44:17.735Z,16.92
2018-11-06T09:46:48.327Z,16.15
2018-11-06T09:49:19.909Z,14.85
2018-11-06T09:51:49.096Z,15.18
2018-11-06T09:54:17.659Z,16.67
2018-11-06T09:56:47.652Z,16.52
2018-11-06T09:59:16.767Z,15.25
2018-11-06T10:01:45.462Z,15.48
2018-11-06T10:04:15.554Z,16.33
2018-11-06T10:06:44.284Z,15.55
2018-11-06T10:09:14.593Z,15.27
2018-11-06T10:11:44.583Z,16.77
2018-11-06T10:14:15.997Z,14.52
2018-11-06T10:16:44.528Z,15.00
2018-11-06T10:19:13.012Z,16.20
2018-11-06T10:21:44.596Z,13.62
2018-11-06T10:24:14.824Z,14.82
2018-11-06T10:26:44.908Z,14.27
2018-11-06T10:29:14.882Z,15.15
2018-11-06T10:31:44.942Z,15.15
2018-11-06T10:34:15.056Z,15.32
2018-11-06T10:36:43.622Z,16.10
2018-11-06T10:39:15.973Z,14.90
2018-11-06T10:41:44.496Z,14.02
2018-11-06T10:44:12.977Z,14.30
2018-11-06T10:46:42.991Z,12.48
2018-11-06T10:49:13.460Z,14.23
2018-11-06T10:51:44.092Z,13.77
2018-11-06T10:54:14.169Z,13.43
2018-11-06T10:56:44.159Z,13.60
2018-11-06T10:59:12.744Z,14.77
2018-11-06T11:01:58.839Z,12.82
2018-11-06T11:04:29.624Z,13.02
2018-11-06T11:06:58.074Z,13.38
2018-11-06T11:09:28.642Z,12.88
2018-11-06T11:11:59.234Z,11.88
2018-11-06T11:14:29.253Z,13.27
2018-11-06T11:16:58.333Z,12.70
2018-11-06T11:19:28.396Z,11.88
2018-11-06T11:21:58.412Z,11.05
2018-11-06T11:24:26.935Z,14.18
2018-11-06T11:26:55.523Z,13.77
2018-11-06T11:29:25.541Z,14.18
2018-11-06T11:31:59.130Z,12.43
2018-11-06T11:34:29.132Z,14.32
2018-11-06T11:36:59.176Z,12.73
2018-11-06T11:39:29.498Z,12.57
2018-11-06T11:41:57.978Z,13.40
2018-11-06T11:44:26.580Z,13.73
2018-11-06T11:46:55.845Z,12.27
2018-11-06T11:49:25.895Z,12.50
2018-11-06T11:51:54.461Z,14.05
2018-11-06T11:54:24.539Z,13.73
2018-11-06T11:56:53.082Z,14.30
2018-11-06T11:59:23.110Z,14.00
2018-11-06T12:01:52.192Z,15.38
2018-11-06T12:04:22.803Z,14.45
2018-11-06T12:06:51.381Z,15.90
2018-11-06T12:09:20.004Z,16.00
2018-11-06T12:11:50.214Z,16.70
2018-11-06T12:14:22.637Z,15.30
2018-11-06T12:16:52.885Z,17.70
2018-11-06T12:19:21.468Z,17.65
2018-11-06T12:21:50.493Z,16.12
2018-11-06T12:24:20.666Z,17.65
2018-11-06T12:26:50.703Z,18.20
2018-11-06T12:29:20.815Z,17.48
2018-11-06T12:31:49.333Z,17.48
2018-11-06T12:34:17.906Z,18.67
2018-11-06T12:36:48.007Z,20.58
2018-11-06T12:39:16.610Z,20.70
2018-11-06T12:41:45.188Z,18.95
2018-11-06T12:44:13.759Z,19.80
2018-11-06T12:46:43.893Z,18.10
2018-11-06T12:49:12.571Z,19.27
2018-11-06T12:51:41.653Z,18.98
2018-11-06T12:54:12.418Z,19.08
2018-11-06T12:56:42.417Z,17.10
2018-11-06T12:59:12.463Z,17.67
2018-11-06T13:01:41.003Z,13.70
2018-11-06T13:04:11.028Z,16.62
2018-11-06T13:06:39.522Z,13.90
2018-11-06T13:09:11.908Z,15.73
2018-11-06T13:11:41.943Z,15.48
2018-11-06T13:14:10.981Z,14.43
2018-11-06T13:16:40.396Z,15.35
2018-11-06T13:19:10.397Z,14.43
2018-11-06T13:21:40.426Z,12.43
2018-11-06T13:24:10.541Z,13.60
2018-11-06T13:26:39.152Z,13.13
2018-11-06T13:29:09.380Z,11.40
2018-11-06T13:31:38.763Z,12.37
2018-11-06T13:34:07.245Z,12.82
2018-11-06T13:36:37.367Z,11.60
2018-11-06T13:39:09.860Z,10.90
2018-11-06T13:41:39.957Z,10.95
2018-11-06T13:44:09.409Z,11.00
2018-11-06T13:46:39.213Z,10.38
2018-11-06T13:49:09.199Z,9.43
2018-11-06T13:51:39.309Z,9.93
2018-11-06T13:54:09.439Z,10.30
2018-11-06T13:56:38.419Z,10.27
2018-11-06T13:59:11.381Z,10.63
2018-11-06T14:01:40.499Z,8.77
2018-11-06T14:04:09.707Z,9.82
2018-11-06T14:06:39.819Z,10.40
2018-11-06T14:09:10.651Z,9.07
2018-11-06T14:11:39.213Z,9.70
2018-11-06T14:14:08.512Z,9.82
2018-11-06T14:16:39.260Z,10.45
2018-11-06T14:19:07.847Z,9.48
2018-11-06T14:21:37.860Z,9.85
2018-11-06T14:24:06.428Z,9.93
2018-11-06T14:26:34.908Z,10.10
2018-11-06T14:29:03.416Z,10.65
2018-11-06T14:31:35.063Z,9.65
2018-11-06T14:34:03.550Z,9.77
2018-11-06T14:36:33.543Z,9.57
2018-11-06T14:39:03.575Z,10.05
2018-11-06T14:41:33.576Z,10.95
2018-11-06T14:44:03.579Z,10.05
2018-11-06T14:46:34.206Z,11.05
2018-11-06T14:49:02.983Z,9.73
2018-11-06T14:51:34.309Z,9.35
2018-11-06T14:54:04.357Z,9.55
2018-11-06T14:56:34.416Z,9.63
2018-11-06T14:59:04.463Z,10.55
2018-11-06T15:01:33.019Z,10.40
2018-11-06T15:04:04.455Z,10.73
2018-11-06T15:06:32.945Z,10.98
2018-11-06T15:09:03.049Z,11.57
2018-11-06T15:11:32.752Z,10.68
2018-11-06T15:14:04.281Z,10.23
2018-11-06T15:16:32.785Z,10.60
2018-11-06T15:19:02.829Z,10.00
2018-11-06T15:21:34.449Z,9.88
2018-11-06T15:24:02.966Z,10.77
2018-11-06T15:26:31.531Z,11.70
2018-11-06T15:29:02.069Z,11.75
2018-11-06T15:31:30.631Z,10.93
2018-11-06T15:34:02.113Z,11.85
2018-11-06T15:36:30.589Z,10.98
2018-11-06T15:38:59.143Z,10.95
2018-11-06T15:41:28.801Z,11.12
2018-11-06T15:43:57.238Z,10.23
2018-11-06T15:46:27.767Z,10.82
2018-11-06T15:48:56.300Z,10.13
2018-11-06T15:51:24.744Z,11.82
2018-11-06T15:53:54.762Z,10.02
2018-11-06T15:56:24.688Z,8.65
2018-11-06T15:58:54.120Z,9.52
2018-11-06T16:01:22.664Z,10.18
2018-11-06T16:03:50.396Z,9.70
2018-11-06T16:06:21.904Z,10.38
2018-11-06T16:08:51.466Z,10.13
2018-11-06T16:11:19.963Z,10.57
2018-11-06T16:13:48.654Z,9.50
2018-11-06T16:16:17.228Z,10.27
2018-11-06T16:18:47.293Z,10.43
2018-11-06T16:21:17.260Z,10.65
2018-11-06T16:23:45.826Z,10.50
2018-11-06T16:26:14.329Z,11.32
2018-11-06T16:28:43.425Z,10.10
2018-11-06T16:31:13.544Z,10.20
2018-11-06T16:33:42.514Z,10.85
2018-11-06T16:36:12.658Z,11.25
2018-11-06T16:38:42.674Z,11.60
2018-11-06T16:41:11.232Z,9.85
2018-11-06T16:43:40.327Z,10.48
2018-11-06T16:46:08.935Z,10.15
2018-11-06T16:48:39.012Z,10.25
2018-11-06T16:51:07.530Z,10.82
2018-11-06T16:53:36.013Z,10.30
2018-11-06T16:56:06.109Z,9.07
2018-11-06T16:58:34.711Z,8.77
2018-11-06T17:01:06.409Z,8.93
2018-11-06T17:03:34.749Z,8.95
2018-11-06T17:06:04.775Z,9.13
2018-11-06T17:08:33.344Z,8.93
2018-11-06T17:11:04.823Z,8.52
2018-11-06T17:13:33.296Z,8.65
2018-11-06T17:16:01.842Z,8.68
2018-11-06T17:18:31.876Z,8.70
2018-11-06T17:21:04.456Z,9.63
2018-11-06T17:23:34.496Z,9.00
2018-11-06T17:26:04.598Z,9.68
2018-11-06T17:28:36.054Z,8.43
2018-11-06T17:31:06.083Z,9.35
2018-11-06T17:33:34.618Z,9.63
2018-11-06T17:36:04.617Z,10.05
2018-11-06T17:38:33.120Z,11.18
2018-11-06T17:41:01.698Z,10.73
2018-11-06T17:43:31.729Z,10.20
2018-11-06T17:46:01.839Z,10.68
2018-11-06T17:48:30.950Z,11.48
2018-11-06T17:50:59.515Z,12.13
2018-11-06T17:53:29.559Z,12.07
2018-11-06T17:55:58.111Z,11.55
2018-11-06T17:58:29.854Z,10.63
2018-11-06T18:00:59.919Z,11.90
2018-11-06T18:03:29.811Z,10.43
2018-11-06T18:05:59.900Z,13.77
2018-11-06T18:08:28.603Z,11.07
2018-11-06T18:11:00.110Z,11.23
2018-11-06T18:13:30.302Z,10.70
2018-11-06T18:16:00.621Z,11.57
2018-11-06T18:18:29.186Z,11.05
2018-11-06T18:20:57.688Z,11.12
2018-11-06T18:23:27.756Z,11.98
2018-11-06T18:25:56.323Z,11.25
2018-11-06T18:28:26.280Z,12.00
2018-11-06T18:30:56.322Z,10.75
2018-11-06T18:33:24.886Z,11.73
2018-11-06T18:35:56.392Z,11.75
2018-11-06T18:38:25.090Z,12.02
2018-11-06T18:40:53.501Z,11.80
2018-11-06T18:43:22.193Z,12.90
2018-11-06T18:45:53.952Z,11.93
2018-11-06T18:48:23.958Z,12.25
2018-11-06T18:50:54.198Z,14.45
2018-11-06T18:53:22.894Z,11.73
2018-11-06T18:55:51.376Z,12.32
2018-11-06T18:58:22.897Z,12.00
2018-11-06T19:00:54.482Z,12.15
2018-11-06T19:03:24.687Z,11.40
2018-11-06T19:05:54.697Z,11.68
2018-11-06T19:08:24.234Z,12.77
2018-11-06T19:10:52.774Z,11.20
2018-11-06T19:13:22.671Z,13.13
2018-11-06T19:15:51.274Z,11.93
2018-11-06T19:18:19.856Z,11.70
2018-11-06T19:20:51.428Z,14.85
2018-11-06T19:23:21.729Z,13.18
2018-11-06T19:25:51.766Z,12.07
2018-11-06T19:28:21.803Z,12.45
2018-11-06T19:30:50.351Z,12.05
2018-11-06T19:33:18.948Z,12.52
2018-11-06T19:35:49.052Z,12.65
2018-11-06T19:38:19.090Z,12.55
2018-11-06T19:40:50.738Z,13.48
2018-11-06T19:43:20.862Z,13.27
2018-11-06T19:45:49.548Z,12.88
2018-11-06T19:48:21.036Z,12.07
2018-11-06T19:50:50.986Z,13.07
2018-11-06T19:53:21.125Z,13.20
2018-11-06T19:55:52.515Z,14.75
2018-11-06T19:58:22.699Z,13.88
2018-11-06T20:00:52.766Z,14.13
2018-11-06T20:03:23.706Z,13.95
2018-11-06T20:05:55.176Z,12.55
2018-11-06T20:08:23.680Z,12.90
2018-11-06T20:10:53.775Z,13.80
2018-11-06T20:13:21.773Z,12.30
2018-11-06T20:15:49.585Z,13.18
2018-11-06T20:18:19.456Z,13.77
2018-11-06T20:20:48.655Z,12.63
2018-11-06T20:23:18.987Z,11.93
2018-11-06T20:25:48.956Z,13.73
2018-11-06T20:28:17.462Z,15.55
2018-11-06T20:30:45.967Z,14.15
2018-11-06T20:33:14.975Z,15.98
2018-11-06T20:35:46.449Z,14.15
2018-11-06T20:38:14.771Z,13.50
2018-11-06T20:40:46.512Z,13.45
2018-11-06T20:43:15.160Z,13.07
2018-11-06T20:45:43.904Z,14.10
2018-11-06T20:48:12.467Z,14.38
2018-11-06T20:50:42.608Z,13.57
2018-11-06T20:53:11.352Z,13.00
2018-11-06T20:55:39.765Z,14.30
2018-11-06T20:58:09.695Z,13.98
2018-11-06T21:00:41.420Z,14.40
2018-11-06T21:03:10.038Z,13.05
2018-11-06T21:05:38.643Z,14.07
2018-11-06T21:08:10.714Z,17.70
2018-11-06T21:10:40.773Z,15.48
2018-11-06T21:13:10.958Z,13.80
2018-11-06T21:15:38.649Z,13.52
2018-11-06T21:18:08.816Z,14.27
2018-11-06T21:20:38.918Z,14.27
2018-11-06T21:23:10.690Z,13.70
2018-11-06T21:25:40.927Z,14.38
2018-11-06T21:28:10.895Z,13.55
2018-11-06T21:30:41.109Z,13.50
2018-11-06T21:33:11.123Z,14.10
2018-11-06T21:35:41.229Z,14.70
2018-11-06T21:38:10.266Z,13.50
2018-11-06T21:40:40.241Z,13.15
2018-11-06T21:43:08.756Z,12.50
2018-11-06T21:45:37.476Z,12.70
2018-11-06T21:48:06.723Z,13.50
2018-11-06T21:50:36.317Z,12.23
2018-11-06T21:53:06.445Z,13.00
2018-11-06T21:55:37.313Z,12.77
2018-11-06T21:58:05.786Z,11.45
2018-11-06T22:00:37.288Z,13.15
2018-11-06T22:03:07.653Z,11.65
2018-11-06T22:05:37.681Z,12.48
2018-11-06T22:08:07.907Z,11.98
2018-11-06T22:10:39.351Z,12.55
2018-11-06T22:13:11.042Z,12.20
2018-11-06T22:15:40.976Z,12.48
2018-11-06T22:18:09.503Z,11.77
2018-11-06T22:20:37.981Z,10.85
2018-11-06T22:23:07.988Z,11.27
2018-11-06T22:25:38.056Z,10.95
2018-11-06T22:28:08.095Z,10.50
2018-11-06T22:30:36.693Z,10.52
2018-11-06T22:33:06.802Z,9.88
2018-11-06T22:35:38.386Z,11.40
2018-11-06T22:38:08.486Z,10.77
2018-11-06T22:40:38.437Z,10.40
2018-11-06T22:43:07.539Z,11.10
2018-11-06T22:45:39.317Z,11.20
2018-11-06T22:48:08.448Z,11.12
2018-11-06T22:50:38.595Z,10.65
2018-11-06T22:53:10.228Z,11.40
2018-11-06T22:55:40.232Z,9.98
2018-11-06T22:58:08.846Z,10.75
2018-11-06T23:00:56.669Z,11.55
2018-11-06T23:03:28.260Z,10.60
2018-11-06T23:05:58.448Z,11.02
2018-11-06T23:08:30.801Z,10.20
2018-11-06T23:10:59.396Z,10.15
2018-11-06T23:13:29.622Z,9.68
2018-11-06T23:15:59.693Z,10.77
2018-11-06T23:18:28.310Z,10.32
2018-11-06T23:20:58.426Z,9.40
2018-11-06T23:23:26.199Z,9.25
2018-11-06T23:25:56.428Z,8.90
2018-11-06T23:28:27.850Z,8.93
2018-11-06T23:30:56.364Z,9.80
2018-11-06T23:33:28.337Z,9.15
2018-11-06T23:35:56.889Z,10.05
2018-11-06T23:38:26.958Z,10.23
2018-11-06T23:40:55.489Z,10.43
2018-11-06T23:43:23.990Z,10.40
2018-11-06T23:45:55.519Z,8.35
2018-11-06T23:48:25.640Z,9.27
2018-11-06T23:50:55.741Z,9.85
2018-11-06T23:53:27.197Z,8.50
2018-11-06T23:55:55.692Z,8.82
2018-11-06T23:58:23.411Z,10.32
